Time;durP1;ratioP1;P1;durP2;ratioP2;P2;SDS_P1;SDS_P2;PMS_P1;PMS_P2;Temp;Humidity;BMP_temperature;BMP_pressure;BME280_temperature;BME280_humidity;BME280_pressure;Samples;Min_cycle;Max_cycle;Signal;HPM_P1;HPM_P2
2022/01/18 00:01:37;;;;;;;2.97;2.27;;;17.00;58.00;;;;;;4996542;28;20446;-83
2022/01/18 00:04:11;;;;;;;5.70;2.30;;;17.00;58.20;;;;;;4995967;28;20453;-83
2022/01/18 00:06:41;;;;;;;3.67;1.83;;;17.00;58.10;;;;;;4997210;28;20446;-83
2022/01/18 00:09:10;;;;;;;4.63;2.57;;;17.00;58.10;;;;;;4997120;28;20453;-83
2022/01/18 00:11:45;;;;;;;3.90;2.20;;;17.00;58.20;;;;;;4996295;28;20544;-83
2022/01/18 00:14:23;;;;;;;3.03;2.27;;;17.00;58.20;;;;;;4996277;28;20535;-84
2022/01/18 00:17:05;;;;;;;6.70;2.47;;;17.00;58.20;;;;;;4997773;28;20441;-84
2022/01/18 00:19:39;;;;;;;3.47;2.23;;;17.10;58.20;;;;;;4997110;28;20453;-83
2022/01/18 00:22:11;;;;;;;4.10;2.00;;;17.10;58.20;;;;;;4995841;28;20481;-84
2022/01/18 00:24:43;;;;;;;4.13;1.80;;;17.00;58.10;;;;;;4994727;28;20473;-84
2022/01/18 00:27:17;;;;;;;2.37;2.03;;;17.00;58.20;;;;;;5000908;28;20457;-83
2022/01/18 00:29:54;;;;;;;11.93;2.27;;;17.00;58.20;;;;;;5000551;28;20472;-83
2022/01/18 00:32:32;;;;;;;5.00;2.03;;;16.90;58.20;;;;;;4998374;28;20437;-83
2022/01/18 00:35:00;;;;;;;4.67;2.37;;;16.90;58.30;;;;;;4996948;28;20488;-83
2022/01/18 00:37:35;;;;;;;2.77;2.00;;;16.90;58.50;;;;;;4996715;28;20467;-83
2022/01/18 00:40:03;;;;;;;3.40;1.83;;;16.90;58.50;;;;;;4996270;28;20515;-83
2022/01/18 00:42:32;;;;;;;3.60;2.50;;;16.80;58.30;;;;;;4997994;28;20473;-83
2022/01/18 00:45:01;;;;;;;3.00;2.13;;;16.80;58.50;;;;;;4998145;28;20820;-84
2022/01/18 00:47:29;;;;;;;5.77;2.53;;;16.80;58.60;;;;;;5001194;28;20445;-83
2022/01/18 00:50:00;;;;;;;2.70;1.80;;;16.80;58.60;;;;;;5003560;28;20465;-84
2022/01/18 00:52:40;;;;;;;2.50;2.00;;;16.70;58.60;;;;;;5001201;28;20453;-83
2022/01/18 00:55:10;;;;;;;5.50;2.43;;;16.70;58.80;;;;;;4999377;28;20476;-82
2022/01/18 00:57:39;;;;;;;4.27;2.10;;;16.70;58.80;;;;;;5000890;28;20495;-84
2022/01/18 01:00:09;;;;;;;4.43;2.30;;;16.60;58.70;;;;;;5000743;28;20493;-83
2022/01/18 01:02:37;;;;;;;3.13;1.87;;;16.60;58.90;;;;;;4999953;28;20464;-83
2022/01/18 01:05:05;;;;;;;4.40;2.10;;;16.70;59.50;;;;;;5004550;28;20476;-83
2022/01/18 01:07:36;;;;;;;4.00;1.93;;;16.60;58.80;;;;;;4999554;28;21014;-86
2022/01/18 01:10:24;;;;;;;6.93;2.37;;;16.60;58.80;;;;;;5000686;28;20504;-84
2022/01/18 01:12:53;;;;;;;4.50;1.87;;;16.60;58.90;;;;;;4999845;28;20516;-82
2022/01/18 01:15:24;;;;;;;6.07;2.17;;;16.60;59.00;;;;;;4999520;28;20477;-84
2022/01/18 01:18:07;;;;;;;3.60;2.10;;;16.60;59.00;;;;;;5000655;28;20437;-82
2022/01/18 01:32:19;;;;;;;3.40;1.93;;;16.60;59.00;;;;;;4996782;28;20468;-83
2022/01/18 01:34:52;;;;;;;6.47;2.57;;;16.60;59.10;;;;;;4996079;28;20445;-82
2022/01/18 01:43:10;;;;;;;4.00;2.17;;;16.50;59.00;;;;;;4997609;28;20465;-82
2022/01/18 01:45:40;;;;;;;5.07;1.80;;;16.50;59.10;;;;;;4994423;28;20445;-83
2022/01/18 01:48:08;;;;;;;4.20;2.10;;;16.50;59.60;;;;;;4997952;28;20532;-83
2022/01/18 01:50:44;;;;;;;4.53;2.00;;;16.60;59.10;;;;;;4996300;28;20492;-83
2022/01/18 01:53:12;;;;;;;3.50;1.97;;;16.60;59.00;;;;;;4998831;28;20431;-82
2022/01/18 01:55:41;;;;;;;3.50;2.00;;;16.50;59.00;;;;;;4996587;28;20571;-83
2022/01/18 01:58:09;;;;;;;5.43;2.30;;;16.60;59.00;;;;;;4996717;28;20529;-83
2022/01/18 02:00:44;;;;;;;4.00;2.20;;;16.60;59.10;;;;;;4992358;28;20484;-83
2022/01/18 02:03:12;;;;;;;2.80;1.83;;;16.60;59.00;;;;;;4996916;28;20452;-83
2022/01/18 02:05:40;;;;;;;5.20;2.17;;;16.50;58.90;;;;;;4997218;28;20437;-83
2022/01/18 02:08:08;;;;;;;4.60;2.13;;;16.50;59.00;;;;;;4997783;28;20451;-83
2022/01/18 02:10:36;;;;;;;4.37;2.17;;;16.50;59.10;;;;;;4998028;28;20457;-83
2022/01/18 02:13:04;;;;;;;5.00;1.97;;;16.50;59.00;;;;;;4998044;28;20568;-82
2022/01/18 02:15:36;;;;;;;7.10;2.00;;;16.50;59.20;;;;;;4996523;28;20519;-83
2022/01/18 02:23:39;;;;;;;3.57;2.03;;;16.40;59.20;;;;;;4995208;28;20493;-82
2022/01/18 02:26:06;;;;;;;4.90;1.90;;;16.40;59.20;;;;;;4997531;28;20552;-83
2022/01/18 02:28:35;;;;;;;2.30;1.80;;;16.40;59.30;;;;;;4998901;28;20509;-82
2022/01/18 02:31:02;;;;;;;3.67;2.17;;;16.40;59.30;;;;;;4997858;28;20461;-82
2022/01/18 02:33:30;;;;;;;3.80;2.10;;;16.40;59.10;;;;;;4997783;28;20465;-82
2022/01/18 02:36:00;;;;;;;2.90;1.90;;;16.40;59.10;;;;;;4998143;28;20527;-82
2022/01/18 02:38:28;;;;;;;2.43;2.03;;;16.50;59.20;;;;;;4997717;28;20496;-82
2022/01/18 02:40:57;;;;;;;5.80;2.00;;;16.40;59.10;;;;;;4995643;28;20511;-82
2022/01/18 02:46:24;;;;;;;1.93;1.77;;;16.40;59.30;;;;;;4957580;28;20497;-82
2022/01/18 02:48:52;;;;;;;5.80;2.13;;;16.30;59.20;;;;;;4987580;28;20481;-82
2022/01/18 02:51:22;;;;;;;5.80;2.37;;;16.30;59.30;;;;;;4996643;28;20473;-82
2022/01/18 02:53:55;;;;;;;5.03;2.00;;;16.30;59.20;;;;;;4996896;28;20453;-82
2022/01/18 02:56:25;;;;;;;5.60;2.13;;;16.30;59.40;;;;;;4996262;28;20472;-82
2022/01/18 02:58:59;;;;;;;5.77;2.13;;;16.30;59.30;;;;;;4997065;28;20503;-82
2022/01/18 03:04:13;;;;;;;4.07;1.77;;;16.30;59.30;;;;;;4995933;28;20445;-82
2022/01/18 03:06:42;;;;;;;7.17;1.80;;;16.30;59.40;;;;;;4996844;28;20461;-82
2022/01/18 03:09:10;;;;;;;2.07;1.80;;;16.30;59.60;;;;;;4993390;28;20457;-82
2022/01/18 03:11:38;;;;;;;7.37;1.90;;;16.30;59.50;;;;;;4996530;28;20568;-82
2022/01/18 03:14:08;;;;;;;4.83;1.97;;;16.30;59.40;;;;;;4995005;28;20991;-82
2022/01/18 03:16:36;;;;;;;4.13;1.90;;;16.30;59.40;;;;;;4997699;28;20497;-82
2022/01/18 03:19:04;;;;;;;5.13;2.03;;;16.30;59.40;;;;;;4997376;28;20495;-82
2022/01/18 03:21:32;;;;;;;2.30;1.90;;;16.30;59.40;;;;;;4997643;28;20536;-82
2022/01/18 03:24:14;;;;;;;3.23;2.10;;;16.30;59.40;;;;;;4994923;28;20535;-82
2022/01/18 03:29:27;;;;;;;5.20;2.23;;;16.40;59.40;;;;;;4994307;28;20488;-82
2022/01/18 03:31:56;;;;;;;3.67;2.30;;;16.40;59.50;;;;;;4996185;28;20461;-82
2022/01/18 03:34:24;;;;;;;5.83;2.40;;;16.40;59.30;;;;;;4998694;28;20525;-82
2022/01/18 03:36:52;;;;;;;3.77;1.87;;;16.40;59.40;;;;;;5002733;28;20484;-82
2022/01/18 03:39:21;;;;;;;2.10;1.97;;;16.40;59.40;;;;;;4992098;28;20489;-81
2022/01/18 03:41:54;;;;;;;3.53;2.20;;;16.40;59.30;;;;;;4999123;28;20544;-82
2022/01/18 03:44:25;;;;;;;2.87;1.73;;;16.40;59.40;;;;;;4995919;28;20552;-81
2022/01/18 03:46:53;;;;;;;4.57;1.70;;;16.40;59.20;;;;;;4997152;28;20482;-82
2022/01/18 03:49:27;;;;;;;2.80;1.60;;;16.40;59.20;;;;;;4996096;28;20460;-82
2022/01/18 03:51:55;;;;;;;3.27;2.30;;;16.40;59.20;;;;;;4992421;28;20476;-82
2022/01/18 03:54:24;;;;;;;2.00;1.47;;;16.50;59.40;;;;;;4993000;28;20445;-82
2022/01/18 03:56:52;;;;;;;2.67;1.50;;;16.50;59.30;;;;;;4993636;28;20472;-82
2022/01/18 03:59:20;;;;;;;3.37;1.80;;;16.50;59.30;;;;;;4993657;28;20473;-82
2022/01/18 04:01:48;;;;;;;6.07;2.27;;;16.50;59.20;;;;;;4993871;28;20480;-82
2022/01/18 04:04:19;;;;;;;4.80;1.83;;;16.50;59.20;;;;;;4991701;28;20458;-82
2022/01/18 04:06:47;;;;;;;2.90;2.03;;;16.50;59.30;;;;;;4992880;28;21035;-82
2022/01/18 04:09:16;;;;;;;3.77;2.23;;;16.50;59.40;;;;;;4994826;28;20444;-82
2022/01/18 04:11:45;;;;;;;4.27;2.20;;;16.40;59.20;;;;;;4995821;28;20438;-81
2022/01/18 04:14:13;;;;;;;4.13;2.10;;;16.50;59.30;;;;;;4995154;28;20532;-81
2022/01/18 04:16:56;;;;;;;3.67;2.00;;;16.40;59.10;;;;;;4994847;28;20497;-81
2022/01/18 04:25:48;;;;;;;6.27;2.70;;;16.40;59.20;;;;;;4995361;28;20433;-81
2022/01/18 04:27:55;;;;;;;4.43;2.10;;;16.40;59.40;;;;;;4976733;28;20546;-81
2022/01/18 04:30:24;;;;;;;3.10;2.00;;;16.30;59.40;;;;;;4983665;28;20525;-81
2022/01/18 04:32:52;;;;;;;3.43;1.80;;;16.30;59.40;;;;;;4986918;28;20458;-82
2022/01/18 04:35:19;;;;;;;3.23;1.93;;;16.30;59.40;;;;;;4986977;28;21031;-82
2022/01/18 04:37:48;;;;;;;6.70;2.23;;;16.30;59.50;;;;;;4989425;28;20581;-81
2022/01/18 04:40:18;;;;;;;4.87;2.00;;;16.30;59.30;;;;;;5003562;28;20469;-81
2022/01/18 04:43:04;;;;;;;3.00;2.20;;;16.30;59.50;;;;;;4985886;28;20477;-81
2022/01/18 04:48:28;;;;;;;2.77;2.10;;;16.40;59.50;;;;;;4977971;28;20489;-81
2022/01/18 04:50:58;;;;;;;3.70;1.87;;;16.40;59.50;;;;;;4978939;28;20482;-81
2022/01/18 04:53:29;;;;;;;3.30;2.20;;;16.40;59.40;;;;;;4978468;28;20450;-81
2022/01/18 04:55:59;;;;;;;3.83;2.47;;;16.40;59.40;;;;;;4984936;28;20453;-81
2022/01/18 04:58:28;;;;;;;8.57;2.00;;;16.40;59.60;;;;;;4998145;28;20501;-81
2022/01/18 05:00:58;;;;;;;4.80;2.30;;;16.40;59.40;;;;;;4993703;28;20469;-81
2022/01/18 05:03:27;;;;;;;3.17;1.60;;;16.40;59.50;;;;;;4998876;28;20437;-81
2022/01/18 05:05:57;;;;;;;2.57;2.10;;;16.40;59.40;;;;;;5001027;28;20449;-81
2022/01/18 05:08:25;;;;;;;2.73;1.63;;;16.50;59.40;;;;;;5004779;28;20504;-81
2022/01/18 05:10:56;;;;;;;3.13;1.73;;;16.50;59.50;;;;;;5004414;28;20460;-81
2022/01/18 05:13:51;;;;;;;2.90;1.67;;;16.50;59.30;;;;;;5001312;28;20456;-81
2022/01/18 05:19:10;;;;;;;6.40;2.43;;;16.40;59.20;;;;;;5005163;28;20655;-81
2022/01/18 05:24:20;;;;;;;3.57;2.40;;;16.50;59.40;;;;;;5004459;28;20459;-81
2022/01/18 05:26:49;;;;;;;3.40;1.90;;;16.50;59.40;;;;;;5004925;28;20462;-81
2022/01/18 05:29:17;;;;;;;6.10;2.00;;;16.40;59.30;;;;;;5001855;28;20453;-81
2022/01/18 05:31:46;;;;;;;3.87;2.00;;;16.50;59.50;;;;;;5005745;28;20425;-81
2022/01/18 05:34:15;;;;;;;3.33;2.03;;;16.50;59.40;;;;;;5008640;28;20452;-81
2022/01/18 05:36:43;;;;;;;3.07;1.83;;;16.50;59.40;;;;;;5008325;28;20561;-81
2022/01/18 05:39:12;;;;;;;2.90;2.00;;;16.50;59.50;;;;;;5007889;28;20432;-81
2022/01/18 05:41:43;;;;;;;5.13;2.30;;;16.50;59.40;;;;;;5007995;28;20468;-81
2022/01/18 05:44:14;;;;;;;5.27;1.97;;;16.50;59.40;;;;;;5008482;28;20441;-81
2022/01/18 05:46:43;;;;;;;2.07;1.83;;;16.50;59.30;;;;;;5005715;28;20453;-81
2022/01/18 05:49:13;;;;;;;5.60;2.10;;;16.50;59.40;;;;;;5009271;28;20442;-81
2022/01/18 05:51:41;;;;;;;4.50;2.07;;;16.50;59.30;;;;;;5012399;28;20437;-81
2022/01/18 05:54:09;;;;;;;6.07;2.00;;;16.50;59.50;;;;;;5011262;28;20500;-81
2022/01/18 05:56:38;;;;;;;2.90;1.60;;;16.50;59.40;;;;;;5009476;28;20433;-81
2022/01/18 05:59:06;;;;;;;6.70;2.70;;;16.60;59.50;;;;;;5009435;28;20473;-81
2022/01/18 06:01:38;;;;;;;4.93;2.80;;;16.60;59.50;;;;;;5009539;28;20455;-81
2022/01/18 06:04:17;;;;;;;3.23;2.07;;;16.60;59.40;;;;;;5007962;28;20453;-81
2022/01/18 06:06:53;;;;;;;5.07;1.93;;;16.60;59.70;;;;;;4992791;28;20430;-81
2022/01/18 06:09:22;;;;;;;3.70;2.30;;;16.60;59.20;;;;;;4993399;28;20434;-81
2022/01/18 06:11:50;;;;;;;8.37;2.77;;;16.60;59.40;;;;;;4989084;28;20492;-81
2022/01/18 06:14:18;;;;;;;3.67;2.10;;;16.60;59.50;;;;;;4988825;28;20450;-80
2022/01/18 06:16:46;;;;;;;4.60;2.20;;;16.60;59.30;;;;;;4989429;28;20461;-81
2022/01/18 06:19:14;;;;;;;4.77;1.90;;;16.60;59.30;;;;;;4989555;28;20552;-81
2022/01/18 06:21:42;;;;;;;3.40;2.13;;;16.60;60.00;;;;;;5007849;28;20441;-81
2022/01/18 06:24:12;;;;;;;3.70;1.90;;;16.60;59.60;;;;;;5008642;28;20433;-81
2022/01/18 06:27:00;;;;;;;1.60;1.50;;;16.60;59.30;;;;;;5007550;28;20501;-80
2022/01/18 06:29:28;;;;;;;2.60;1.80;;;16.60;59.40;;;;;;5006559;28;20476;-80
2022/01/18 06:31:56;;;;;;;3.50;1.90;;;16.60;59.40;;;;;;5007247;28;20450;-81
2022/01/18 06:34:24;;;;;;;2.53;1.90;;;16.60;59.50;;;;;;5007320;28;20445;-80
2022/01/18 06:36:53;;;;;;;4.50;2.40;;;16.60;59.60;;;;;;5004811;28;20457;-81
2022/01/18 06:39:22;;;;;;;3.53;2.03;;;16.60;59.40;;;;;;5005888;28;20558;-81
2022/01/18 06:41:51;;;;;;;5.30;2.10;;;16.60;59.50;;;;;;5006178;28;20464;-80
2022/01/18 06:44:19;;;;;;;3.90;2.10;;;16.60;59.40;;;;;;5005079;28;20451;-81
2022/01/18 06:46:48;;;;;;;4.00;2.20;;;16.60;59.80;;;;;;5005684;28;20449;-80
2022/01/18 06:49:16;;;;;;;3.80;2.13;;;16.60;59.50;;;;;;5005191;28;20461;-80
2022/01/18 06:51:44;;;;;;;3.93;1.80;;;16.60;59.40;;;;;;5006904;28;20445;-80
2022/01/18 06:54:16;;;;;;;4.50;2.20;;;16.60;59.40;;;;;;5005653;28;20453;-80
2022/01/18 06:56:46;;;;;;;6.93;2.23;;;16.60;59.50;;;;;;5006677;28;20476;-80
2022/01/18 06:59:14;;;;;;;6.00;2.33;;;16.60;59.60;;;;;;5007272;28;20509;-80
2022/01/18 07:01:42;;;;;;;3.87;2.20;;;16.60;59.60;;;;;;5006364;28;20469;-80
2022/01/18 07:04:11;;;;;;;3.87;2.33;;;16.60;59.50;;;;;;5006524;28;20453;-80
2022/01/18 07:06:39;;;;;;;4.57;2.07;;;16.60;59.50;;;;;;5007947;28;20449;-80
2022/01/18 07:09:07;;;;;;;4.97;2.20;;;16.60;59.60;;;;;;4998906;28;20429;-81
2022/01/18 07:11:35;;;;;;;3.63;2.30;;;16.60;59.40;;;;;;4994015;28;20881;-80
2022/01/18 07:14:04;;;;;;;3.17;2.10;;;16.60;59.60;;;;;;4997813;28;20484;-81
2022/01/18 07:16:36;;;;;;;4.67;2.33;;;16.60;59.50;;;;;;4997896;28;20444;-81
2022/01/18 07:19:04;;;;;;;2.90;2.10;;;16.60;59.50;;;;;;4997115;28;20504;-81
2022/01/18 07:21:32;;;;;;;4.10;2.40;;;16.60;59.60;;;;;;4997839;28;20520;-81
2022/01/18 07:24:04;;;;;;;3.33;2.30;;;16.60;59.60;;;;;;4997092;28;20468;-81
2022/01/18 07:26:32;;;;;;;3.93;2.23;;;16.60;59.50;;;;;;4997032;28;20892;-81
2022/01/18 07:29:00;;;;;;;3.10;1.87;;;16.60;59.60;;;;;;4992236;28;20564;-81
2022/01/18 07:31:29;;;;;;;2.20;1.87;;;16.60;59.60;;;;;;4997149;28;20528;-81
2022/01/18 07:33:57;;;;;;;3.43;2.13;;;16.60;59.60;;;;;;4997074;28;20477;-81
2022/01/18 07:36:25;;;;;;;5.13;2.47;;;16.60;59.90;;;;;;4997222;28;20461;-81
2022/01/18 07:38:55;;;;;;;2.77;1.63;;;16.60;59.50;;;;;;4997070;28;20504;-81
2022/01/18 07:41:24;;;;;;;3.60;2.13;;;16.60;59.50;;;;;;4997179;28;20497;-81
2022/01/18 07:43:52;;;;;;;3.30;2.00;;;16.60;59.70;;;;;;4997072;28;20528;-81
2022/01/18 07:46:20;;;;;;;2.87;2.20;;;16.60;59.50;;;;;;4996111;28;20457;-81
2022/01/18 07:48:49;;;;;;;4.03;1.90;;;16.60;59.70;;;;;;4977888;28;20449;-81
2022/01/18 07:51:17;;;;;;;2.23;1.80;;;16.60;59.60;;;;;;4977770;28;20486;-81
2022/01/18 07:53:45;;;;;;;4.33;2.50;;;16.60;59.70;;;;;;4977875;28;20442;-81
2022/01/18 07:56:14;;;;;;;6.67;2.53;;;16.60;59.80;;;;;;4977773;28;20453;-81
2022/01/18 07:58:42;;;;;;;4.00;2.30;;;16.60;59.70;;;;;;4977491;28;20984;-81
2022/01/18 08:01:10;;;;;;;3.17;2.00;;;16.60;59.70;;;;;;4977581;28;20642;-81
2022/01/18 08:03:39;;;;;;;3.27;2.10;;;16.60;59.80;;;;;;4990138;28;20459;-81
2022/01/18 08:06:08;;;;;;;3.47;2.10;;;16.60;59.70;;;;;;4991432;28;20534;-81
2022/01/18 08:08:39;;;;;;;2.40;1.80;;;16.60;59.70;;;;;;4996608;28;20465;-81
2022/01/18 08:11:07;;;;;;;4.40;2.10;;;16.60;59.60;;;;;;4996454;28;21059;-81
2022/01/18 08:13:39;;;;;;;3.50;1.93;;;16.60;59.60;;;;;;4996873;28;20443;-81
2022/01/18 08:16:22;;;;;;;4.60;2.37;;;16.70;59.90;;;;;;4997012;28;20433;-81
2022/01/18 08:18:50;;;;;;;6.43;2.13;;;16.70;59.80;;;;;;4994626;28;20504;-81
2022/01/18 08:21:20;;;;;;;4.73;3.10;;;16.60;59.60;;;;;;4996281;28;21034;-81
2022/01/18 08:23:48;;;;;;;3.10;1.97;;;16.60;59.80;;;;;;4996416;28;20527;-81
2022/01/18 08:26:17;;;;;;;2.50;1.93;;;16.60;59.70;;;;;;4996339;28;20465;-81
2022/01/18 08:28:45;;;;;;;3.23;2.10;;;16.60;59.80;;;;;;4996220;28;20536;-81
2022/01/18 08:31:13;;;;;;;6.50;2.30;;;16.70;59.70;;;;;;4995963;28;20553;-81
2022/01/18 08:33:41;;;;;;;3.63;1.90;;;16.70;59.90;;;;;;4995869;28;20444;-81
2022/01/18 08:36:09;;;;;;;8.00;2.73;;;16.70;59.70;;;;;;4993843;28;20458;-81
2022/01/18 08:38:40;;;;;;;6.73;2.23;;;16.70;59.70;;;;;;4995218;28;20472;-81
2022/01/18 08:41:07;;;;;;;2.43;1.70;;;16.70;59.50;;;;;;4995838;28;20552;-81
2022/01/18 08:43:37;;;;;;;4.67;2.57;;;16.70;59.60;;;;;;4995631;28;20457;-82
2022/01/18 08:46:06;;;;;;;5.20;2.47;;;16.70;59.60;;;;;;4996329;28;20488;-81
2022/01/18 08:48:35;;;;;;;5.83;2.57;;;16.70;59.70;;;;;;4997056;28;20442;-81
2022/01/18 08:51:03;;;;;;;4.87;2.17;;;16.70;59.70;;;;;;4995722;28;20472;-81
2022/01/18 08:53:31;;;;;;;8.03;2.43;;;16.70;59.50;;;;;;4990731;28;20461;-81
2022/01/18 08:56:00;;;;;;;2.60;1.93;;;16.70;59.60;;;;;;4996143;28;20503;-81
2022/01/18 08:58:28;;;;;;;5.60;2.47;;;16.70;59.60;;;;;;4995975;28;20465;-81
2022/01/18 09:00:56;;;;;;;2.20;1.90;;;16.70;59.60;;;;;;4996464;28;20481;-81
2022/01/18 09:03:25;;;;;;;2.20;1.50;;;16.80;59.70;;;;;;4995775;28;20433;-81
2022/01/18 09:05:53;;;;;;;4.77;2.03;;;16.80;59.60;;;;;;4995766;28;20486;-81
2022/01/18 09:08:22;;;;;;;2.80;2.17;;;16.80;59.60;;;;;;4999361;28;20532;-82
2022/01/18 09:10:50;;;;;;;2.80;2.20;;;16.80;59.60;;;;;;4995069;28;20469;-81
2022/01/18 09:13:21;;;;;;;6.63;2.33;;;16.80;59.60;;;;;;4999550;28;20516;-81
2022/01/18 09:15:49;;;;;;;6.83;2.40;;;16.80;59.50;;;;;;4999185;28;20469;-81
2022/01/18 09:18:18;;;;;;;3.87;1.97;;;16.80;59.50;;;;;;4998873;28;20465;-81
2022/01/18 09:20:45;;;;;;;1.93;1.60;;;16.90;60.20;;;;;;4999019;28;20577;-81
2022/01/18 09:23:14;;;;;;;5.80;2.27;;;16.90;59.60;;;;;;4995520;28;20480;-81
2022/01/18 09:25:42;;;;;;;7.77;2.43;;;16.90;59.50;;;;;;5001131;28;20449;-81
2022/01/18 09:28:14;;;;;;;6.23;2.70;;;16.90;59.50;;;;;;5009759;28;20441;-81
2022/01/18 09:30:44;;;;;;;5.70;2.40;;;16.90;59.50;;;;;;5010965;28;20464;-81
2022/01/18 09:33:12;;;;;;;4.90;2.20;;;16.90;59.40;;;;;;5008965;28;20465;-81
2022/01/18 09:35:40;;;;;;;4.47;2.00;;;16.90;59.50;;;;;;5009973;28;20452;-81
2022/01/18 09:38:10;;;;;;;4.07;2.00;;;17.00;59.50;;;;;;5009575;28;20439;-81
2022/01/18 09:40:39;;;;;;;4.13;2.17;;;16.90;59.40;;;;;;5008527;28;20496;-81
2022/01/18 09:43:11;;;;;;;3.77;1.90;;;16.90;59.40;;;;;;5008476;28;20445;-82
2022/01/18 09:45:41;;;;;;;4.63;2.10;;;16.90;59.50;;;;;;5006450;28;20472;-82
2022/01/18 09:48:11;;;;;;;2.37;1.80;;;17.00;59.70;;;;;;5006415;28;20448;-82
2022/01/18 09:50:39;;;;;;;1.97;1.60;;;17.00;59.50;;;;;;5004372;28;20453;-82
2022/01/18 09:53:09;;;;;;;3.57;2.00;;;16.90;59.40;;;;;;5001040;28;20528;-85
2022/01/18 09:55:37;;;;;;;2.93;2.00;;;17.00;59.50;;;;;;4996818;28;20491;-83
2022/01/18 09:58:07;;;;;;;3.97;2.20;;;17.00;59.50;;;;;;4999432;28;20508;-81
2022/01/18 10:00:36;;;;;;;3.77;2.10;;;16.90;59.30;;;;;;4999408;28;20477;-81
2022/01/18 10:03:27;;;;;;;2.70;1.77;;;16.90;59.40;;;;;;4997902;28;20463;-82
2022/01/18 10:05:55;;;;;;;3.00;2.13;;;17.00;59.60;;;;;;4992826;28;20448;-81
2022/01/18 10:08:23;;;;;;;6.00;2.13;;;17.00;59.50;;;;;;4999414;28;20476;-81
2022/01/18 10:10:53;;;;;;;5.87;2.20;;;17.00;59.60;;;;;;4997737;28;20552;-82
2022/01/18 10:13:22;;;;;;;2.83;1.77;;;17.00;59.50;;;;;;4997830;28;20501;-82
2022/01/18 10:16:00;;;;;;;2.60;2.10;;;17.00;59.50;;;;;;4997406;28;20586;-82
2022/01/18 10:18:42;;;;;;;1.77;1.63;;;17.00;59.50;;;;;;4996865;28;20457;-81
2022/01/18 10:21:10;;;;;;;4.13;2.20;;;17.00;59.60;;;;;;4996238;28;20568;-81
2022/01/18 10:23:38;;;;;;;5.13;2.10;;;17.00;59.50;;;;;;4997185;28;20461;-79
2022/01/18 10:26:17;;;;;;;4.67;2.57;;;17.00;59.50;;;;;;4997415;28;20445;-82
2022/01/18 10:28:45;;;;;;;4.53;2.53;;;17.00;59.60;;;;;;4996392;28;20442;-82
2022/01/18 10:31:26;;;;;;;2.43;1.90;;;17.00;59.50;;;;;;4997481;28;20495;-83
2022/01/18 10:34:13;;;;;;;5.27;2.23;;;17.00;59.50;;;;;;4999357;28;20468;-82
2022/01/18 10:36:55;;;;;;;3.10;2.00;;;17.00;59.40;;;;;;4996701;28;20507;-83
2022/01/18 10:39:24;;;;;;;2.90;2.10;;;17.00;59.50;;;;;;4998557;28;21004;-83
2022/01/18 10:41:52;;;;;;;4.07;2.10;;;17.00;59.60;;;;;;4997657;28;20481;-82
2022/01/18 10:44:20;;;;;;;5.10;1.80;;;17.00;59.40;;;;;;4999443;28;20529;-83
2022/01/18 10:46:50;;;;;;;2.97;2.50;;;17.00;59.60;;;;;;4997931;28;20472;-83
2022/01/18 10:49:35;;;;;;;2.20;1.70;;;17.00;59.50;;;;;;4996331;28;20431;-83
2022/01/18 10:52:05;;;;;;;4.07;2.00;;;17.10;59.60;;;;;;4998976;28;20485;-83
2022/01/18 10:54:35;;;;;;;4.33;2.10;;;17.00;59.50;;;;;;4997482;28;20525;-83
2022/01/18 10:57:06;;;;;;;4.00;2.00;;;17.00;59.50;;;;;;4999641;28;20524;-83
2022/01/18 10:59:34;;;;;;;5.10;2.30;;;17.00;59.80;;;;;;5000306;28;20457;-83
2022/01/18 11:02:12;;;;;;;8.23;1.90;;;17.00;59.60;;;;;;4998762;28;20464;-83
2022/01/18 11:04:46;;;;;;;2.47;2.10;;;17.00;59.50;;;;;;4999372;28;20437;-83
2022/01/18 11:07:16;;;;;;;4.73;2.40;;;17.00;59.60;;;;;;4998122;28;20536;-83
2022/01/18 11:09:44;;;;;;;5.33;2.00;;;17.00;59.80;;;;;;4992754;28;20496;-82
2022/01/18 11:12:12;;;;;;;4.67;2.13;;;17.10;59.80;;;;;;4994352;28;20484;-83
2022/01/18 11:14:44;;;;;;;6.60;1.93;;;17.10;59.60;;;;;;4994901;28;20487;-82
2022/01/18 11:17:20;;;;;;;4.33;1.93;;;17.10;59.60;;;;;;4998000;28;20456;-82
2022/01/18 11:19:51;;;;;;;6.30;2.10;;;17.10;60.40;;;;;;4996029;28;20453;-82
2022/01/18 11:22:19;;;;;;;3.67;1.90;;;17.10;59.70;;;;;;4997171;28;20460;-82
2022/01/18 11:24:48;;;;;;;4.07;2.30;;;17.10;59.80;;;;;;4997696;28;20436;-82
2022/01/18 11:27:18;;;;;;;5.87;2.50;;;17.10;59.70;;;;;;4996532;28;20434;-82
2022/01/18 11:29:48;;;;;;;5.93;2.20;;;17.10;59.70;;;;;;4996167;28;20488;-82
2022/01/18 11:32:16;;;;;;;4.73;2.40;;;17.10;59.80;;;;;;4997366;28;20468;-82
2022/01/18 11:34:54;;;;;;;3.90;2.10;;;17.00;59.60;;;;;;4996841;28;20436;-82
2022/01/18 11:37:27;;;;;;;4.27;2.10;;;17.00;59.80;;;;;;4997082;28;20464;-82
2022/01/18 11:39:58;;;;;;;3.70;1.90;;;17.10;59.70;;;;;;4996259;28;20516;-82
2022/01/18 11:42:49;;;;;;;6.63;2.00;;;17.10;59.90;;;;;;4997136;28;20495;-82
2022/01/18 11:45:32;;;;;;;5.70;2.13;;;17.10;59.70;;;;;;4995478;28;20462;-82
2022/01/18 11:48:01;;;;;;;5.23;2.30;;;17.10;59.70;;;;;;4997993;28;20432;-82
2022/01/18 11:50:31;;;;;;;5.00;2.10;;;17.10;59.80;;;;;;4999786;28;20524;-82
2022/01/18 11:53:23;;;;;;;4.97;1.90;;;17.10;59.60;;;;;;5000234;28;20457;-82
2022/01/18 11:55:52;;;;;;;2.43;1.97;;;17.10;59.70;;;;;;4998825;28;20445;-82
2022/01/18 11:58:21;;;;;;;3.63;1.83;;;17.20;59.60;;;;;;5000009;28;20425;-82
2022/01/18 12:00:52;;;;;;;2.43;1.90;;;17.20;59.80;;;;;;5000195;28;20549;-82
2022/01/18 12:03:22;;;;;;;3.00;2.33;;;17.20;59.50;;;;;;4997804;28;20473;-82
2022/01/18 12:05:51;;;;;;;2.80;1.80;;;17.30;59.60;;;;;;4997900;28;20473;-82
2022/01/18 12:08:36;;;;;;;4.63;1.97;;;17.30;59.70;;;;;;4999519;28;20446;-82
2022/01/18 12:11:06;;;;;;;2.20;1.90;;;17.30;59.70;;;;;;4996686;28;20505;-82
2022/01/18 12:13:45;;;;;;;4.60;1.90;;;17.30;59.50;;;;;;4999475;28;20441;-82
2022/01/18 12:16:27;;;;;;;3.77;1.77;;;17.30;59.60;;;;;;5001750;28;20429;-81
2022/01/18 12:18:58;;;;;;;1.70;1.60;;;17.30;59.50;;;;;;5004567;28;20429;-81
2022/01/18 12:21:28;;;;;;;6.00;2.50;;;17.40;59.80;;;;;;5005082;28;20469;-81
2022/01/18 12:23:57;;;;;;;2.27;2.00;;;17.40;59.40;;;;;;5003871;28;20425;-82
2022/01/18 12:26:40;;;;;;;4.53;2.03;;;17.40;59.50;;;;;;4998965;28;20440;-82
2022/01/18 12:32:39;;;;;;;4.30;2.30;;;17.40;59.70;;;;;;5000794;28;20441;-81
2022/01/18 12:35:18;;;;;;;4.50;2.20;;;17.40;59.50;;;;;;4999085;28;20436;-82
2022/01/18 12:37:48;;;;;;;4.57;2.40;;;17.40;59.50;;;;;;4999988;28;20512;-82
2022/01/18 12:40:31;;;;;;;2.67;1.80;;;17.40;59.60;;;;;;5011884;28;20492;-82
2022/01/18 12:45:49;;;;;;;3.70;1.93;;;17.40;59.70;;;;;;5008642;28;20432;-82
2022/01/18 12:48:18;;;;;;;2.07;1.80;;;17.40;59.60;;;;;;5010740;28;20441;-82
2022/01/18 12:50:47;;;;;;;2.80;2.20;;;17.40;59.70;;;;;;5008076;28;20447;-82
2022/01/18 12:53:19;;;;;;;2.40;1.73;;;17.40;59.60;;;;;;5011753;28;20425;-82
2022/01/18 12:55:54;;;;;;;4.13;1.90;;;17.40;59.60;;;;;;5008819;28;20500;-83
2022/01/18 12:58:26;;;;;;;2.77;1.80;;;17.40;59.60;;;;;;5010622;28;20448;-81
2022/01/18 13:00:57;;;;;;;2.43;1.60;;;17.40;59.60;;;;;;5011132;28;20449;-82
2022/01/18 13:03:28;;;;;;;5.43;2.10;;;17.40;59.70;;;;;;5008742;28;20434;-82
2022/01/18 13:05:58;;;;;;;3.37;1.80;;;17.40;59.50;;;;;;5012320;28;20413;-83
2022/01/18 13:08:30;;;;;;;2.20;1.50;;;17.30;59.70;;;;;;5006805;28;20461;-82
2022/01/18 13:10:58;;;;;;;4.17;1.80;;;17.40;59.60;;;;;;5012121;28;20476;-82
2022/01/18 13:13:32;;;;;;;2.53;1.77;;;17.40;59.70;;;;;;5010394;28;20445;-82
2022/01/18 13:16:06;;;;;;;3.27;1.80;;;17.40;59.60;;;;;;5010815;28;20468;-82
2022/01/18 13:24:45;;;;;;;4.10;2.27;;;17.40;59.70;;;;;;5010557;28;20437;-82
2022/01/18 13:27:17;;;;;;;1.73;1.63;;;17.40;59.70;;;;;;5010391;28;20437;-82
2022/01/18 13:29:47;;;;;;;4.10;2.13;;;17.40;59.70;;;;;;5010309;28;20489;-82
2022/01/18 13:32:19;;;;;;;2.10;1.90;;;17.40;59.50;;;;;;5011414;28;20425;-83
2022/01/18 13:34:48;;;;;;;2.20;1.40;;;17.40;59.80;;;;;;5009185;28;20433;-82
2022/01/18 13:37:18;;;;;;;2.40;1.63;;;17.40;59.70;;;;;;5010427;28;20429;-83
2022/01/18 13:39:50;;;;;;;3.80;1.83;;;17.40;59.60;;;;;;5010996;28;20514;-82
2022/01/18 13:42:19;;;;;;;3.03;1.70;;;17.40;59.80;;;;;;4994418;28;20548;-83
2022/01/18 13:45:09;;;;;;;3.10;1.83;;;17.40;59.60;;;;;;4994284;28;20485;-83
2022/01/18 13:47:38;;;;;;;3.60;1.67;;;17.40;59.70;;;;;;4991792;28;20521;-83
2022/01/18 13:50:06;;;;;;;2.87;1.47;;;17.30;59.60;;;;;;4994614;28;20492;-83
2022/01/18 13:52:34;;;;;;;1.93;1.73;;;17.30;59.80;;;;;;4995686;28;20457;-83
2022/01/18 13:55:04;;;;;;;4.30;2.17;;;17.30;59.80;;;;;;4998916;28;20472;-83
2022/01/18 13:57:32;;;;;;;2.43;1.63;;;17.30;59.80;;;;;;4998067;28;20472;-83
2022/01/18 14:00:09;;;;;;;4.40;1.97;;;17.30;59.70;;;;;;4997929;28;20477;-83
2022/01/18 14:02:42;;;;;;;3.10;1.50;;;17.30;59.80;;;;;;4996532;28;20551;-83
2022/01/18 14:05:10;;;;;;;3.70;2.00;;;17.30;59.80;;;;;;4998041;28;20541;-83